Date,TemperatureHighF,TemperatureAvgF,TemperatureLowF,DewpointHighF,DewpointAvgF,DewpointLowF,HumidityHigh,HumidityAvg,HumidityLow,PressureMaxIn,PressureMinIn,WindSpeedMaxMPH,WindSpeedAvgMPH,GustSpeedMaxMPH,PrecipitationSumIn
2013-10-1,43,36,32,-100,-100,-100,0,0,100,0.00,40.00,0,-999,0,0.00
2013-10-2,48,38,32,-100,-100,-100,0,0,100,0.00,40.00,0,-999,0,0.00
2013-10-3,42,39,37,-100,-100,-100,0,0,100,0.00,40.00,0,-999,0,0.00
2013-10-4,55,39,31,-100,-100,-100,0,0,100,0.00,40.00,0,-999,0,0.00
2013-10-5,44,37,29,-100,-100,-100,0,0,100,0.00,40.00,0,-999,0,0.00
2013-10-6,39,37,35,-100,-100,-100,0,0,100,0.00,40.00,0,-999,0,0.00
2013-10-7,52,41,37,-100,-100,-100,0,0,100,0.00,40.00,0,-999,0,0.00
2013-10-8,43,39,35,-100,-100,-100,0,0,100,0.00,40.00,0,-999,0,0.00
2013-10-9,47,38,32,-100,-100,-100,0,0,100,0.00,40.00,0,-999,0,0.00
2013-10-10,38,36,30,-100,-100,-100,0,0,100,0.00,40.00,0,-999,0,0.00
2013-10-11,47,40,37,-100,-100,-100,0,0,100,0.00,40.00,0,-999,0,0.00
2013-10-12,40,39,37,-100,-100,-100,0,0,100,0.00,40.00,0,-999,0,0.00
2013-10-13,47,40,36,-100,-100,-100,0,0,100,0.00,40.00,0,-999,0,0.00
2013-10-14,46,39,35,-100,-100,-100,0,0,100,0.00,40.00,0,-999,0,0.00
2013-10-15,43,41,38,-100,-100,-100,0,0,100,0.00,40.00,0,-999,0,0.00
2013-10-16,42,41,38,-100,-100,-100,0,0,100,0.00,40.00,0,-999,0,0.00
2013-10-17,42,41,39,-100,-100,-100,0,0,100,0.00,40.00,0,-999,0,0.00
2013-10-18,42,39,37,-100,-100,-100,0,0,100,0.00,40.00,0,-999,0,0.00
2013-10-19,42,38,36,-100,-100,-100,0,0,100,0.00,40.00,0,-999,0,0.00
2013-10-20,40,36,34,-100,-100,-100,0,0,100,0.00,40.00,0,-999,0,0.00
2013-10-21,38,35,32,-100,-100,-100,0,0,100,0.00,40.00,0,-999,0,0.00
2013-10-22,44,34,27,-100,-100,-100,0,0,100,0.00,40.00,0,-999,0,0.00
2013-10-23,34,25,21,-100,-100,-100,0,0,100,0.00,40.00,0,-999,0,0.00
2013-10-24,39,35,29,-100,-100,-100,0,0,100,0.00,40.00,0,-999,0,0.00
2013-10-25,48,36,30,-100,-100,-100,0,0,100,0.00,40.00,0,-999,0,0.00
2013-10-26,48,35,27,-100,-100,-100,0,0,100,0.00,40.00,0,-999,0,0.00
2013-10-27,45,39,35,-100,-100,-100,0,0,100,0.00,40.00,0,-999,0,0.00
2013-10-28,43,40,37,-100,-100,-100,0,0,100,0.00,40.00,0,-999,0,0.00
2013-10-29,42,37,32,-100,-100,-100,0,0,100,0.00,40.00,0,-999,0,0.00
2013-10-30,39,36,34,-100,-100,-100,0,0,100,0.00,40.00,0,-999,0,0.00
2013-10-31,38,35,33,-100,-100,-100,0,0,100,0.00,40.00,0,-999,0,0.00